sensor_id;sensor_type;location;lat;lon;timestamp;P1;durP1;ratioP1;P2;durP2;ratioP2
23634;SDS011;11994;51.038;16.974;2022-11-06T00:01:04;47.23;;;26.60;;
23634;SDS011;11994;51.038;16.974;2022-11-06T00:03:32;46.40;;;28.60;;
23634;SDS011;11994;51.038;16.974;2022-11-06T00:05:59;44.65;;;25.20;;
23634;SDS011;11994;51.038;16.974;2022-11-06T00:08:51;39.10;;;23.47;;
23634;SDS011;11994;51.038;16.974;2022-11-06T00:11:18;36.88;;;22.98;;
23634;SDS011;11994;51.038;16.974;2022-11-06T00:13:44;36.50;;;23.45;;
23634;SDS011;11994;51.038;16.974;2022-11-06T00:16:11;35.65;;;21.97;;
23634;SDS011;11994;51.038;16.974;2022-11-06T00:18:39;35.25;;;21.82;;
23634;SDS011;11994;51.038;16.974;2022-11-06T00:21:11;34.88;;;22.00;;
23634;SDS011;11994;51.038;16.974;2022-11-06T00:23:40;39.05;;;23.87;;
23634;SDS011;11994;51.038;16.974;2022-11-06T00:26:08;39.55;;;25.08;;
23634;SDS011;11994;51.038;16.974;2022-11-06T00:28:37;38.28;;;23.80;;
23634;SDS011;11994;51.038;16.974;2022-11-06T00:31:05;31.82;;;19.90;;
23634;SDS011;11994;51.038;16.974;2022-11-06T00:33:41;31.48;;;20.25;;
23634;SDS011;11994;51.038;16.974;2022-11-06T00:36:12;31.62;;;20.35;;
23634;SDS011;11994;51.038;16.974;2022-11-06T00:38:38;33.13;;;20.55;;
23634;SDS011;11994;51.038;16.974;2022-11-06T00:41:05;33.38;;;21.07;;
23634;SDS011;11994;51.038;16.974;2022-11-06T00:43:33;33.78;;;21.05;;
23634;SDS011;11994;51.038;16.974;2022-11-06T00:46:03;33.88;;;20.35;;
23634;SDS011;11994;51.038;16.974;2022-11-06T00:48:31;35.03;;;20.72;;
23634;SDS011;11994;51.038;16.974;2022-11-06T00:51:07;33.60;;;20.00;;
23634;SDS011;11994;51.038;16.974;2022-11-06T00:53:33;34.15;;;20.57;;
23634;SDS011;11994;51.038;16.974;2022-11-06T00:56:13;31.90;;;20.57;;
23634;SDS011;11994;51.038;16.974;2022-11-06T00:58:39;48.60;;;23.60;;
23634;SDS011;11994;51.038;16.974;2022-11-06T01:01:10;40.33;;;24.43;;
23634;SDS011;11994;51.038;16.974;2022-11-06T01:03:39;38.75;;;25.65;;
23634;SDS011;11994;51.038;16.974;2022-11-06T01:06:09;38.48;;;24.55;;
23634;SDS011;11994;51.038;16.974;2022-11-06T01:08:43;40.67;;;26.17;;
23634;SDS011;11994;51.038;16.974;2022-11-06T01:11:15;36.17;;;23.60;;
23634;SDS011;11994;51.038;16.974;2022-11-06T01:13:51;36.08;;;23.22;;
23634;SDS011;11994;51.038;16.974;2022-11-06T01:16:20;35.40;;;22.10;;
23634;SDS011;11994;51.038;16.974;2022-11-06T01:18:46;33.53;;;21.27;;
23634;SDS011;11994;51.038;16.974;2022-11-06T01:21:18;36.15;;;23.02;;
23634;SDS011;11994;51.038;16.974;2022-11-06T01:23:53;33.33;;;21.52;;
23634;SDS011;11994;51.038;16.974;2022-11-06T01:26:25;33.85;;;19.87;;
23634;SDS011;11994;51.038;16.974;2022-11-06T01:28:53;31.17;;;18.77;;
23634;SDS011;11994;51.038;16.974;2022-11-06T01:31:24;33.05;;;20.55;;
23634;SDS011;11994;51.038;16.974;2022-11-06T01:33:50;32.60;;;21.48;;
23634;SDS011;11994;51.038;16.974;2022-11-06T01:36:18;34.53;;;22.65;;
23634;SDS011;11994;51.038;16.974;2022-11-06T01:38:46;34.15;;;22.62;;
23634;SDS011;11994;51.038;16.974;2022-11-06T01:41:16;35.45;;;22.55;;
23634;SDS011;11994;51.038;16.974;2022-11-06T01:46:21;35.70;;;23.07;;
23634;SDS011;11994;51.038;16.974;2022-11-06T01:48:51;33.65;;;20.80;;
23634;SDS011;11994;51.038;16.974;2022-11-06T01:51:35;35.25;;;21.40;;
23634;SDS011;11994;51.038;16.974;2022-11-06T01:54:05;37.75;;;21.85;;
23634;SDS011;11994;51.038;16.974;2022-11-06T01:56:33;30.08;;;20.55;;
23634;SDS011;11994;51.038;16.974;2022-11-06T01:59:00;27.77;;;19.27;;
23634;SDS011;11994;51.038;16.974;2022-11-06T02:01:27;29.90;;;19.80;;
23634;SDS011;11994;51.038;16.974;2022-11-06T02:03:55;31.97;;;20.00;;
23634;SDS011;11994;51.038;16.974;2022-11-06T02:06:25;62.98;;;37.17;;
23634;SDS011;11994;51.038;16.974;2022-11-06T02:08:51;42.85;;;26.73;;
23634;SDS011;11994;51.038;16.974;2022-11-06T02:11:17;33.05;;;19.32;;
23634;SDS011;11994;51.038;16.974;2022-11-06T02:13:47;26.57;;;17.00;;
23634;SDS011;11994;51.038;16.974;2022-11-06T02:17:08;23.22;;;16.15;;
23634;SDS011;11994;51.038;16.974;2022-11-06T02:28:44;39.42;;;23.83;;
23634;SDS011;11994;51.038;16.974;2022-11-06T02:31:23;32.23;;;20.65;;
23634;SDS011;11994;51.038;16.974;2022-11-06T02:33:53;26.15;;;16.60;;
23634;SDS011;11994;51.038;16.974;2022-11-06T02:36:24;23.90;;;15.03;;
23634;SDS011;11994;51.038;16.974;2022-11-06T02:38:55;26.40;;;16.27;;
23634;SDS011;11994;51.038;16.974;2022-11-06T02:41:24;22.80;;;15.87;;
23634;SDS011;11994;51.038;16.974;2022-11-06T02:43:55;23.18;;;15.43;;
23634;SDS011;11994;51.038;16.974;2022-11-06T02:46:32;22.90;;;15.28;;
23634;SDS011;11994;51.038;16.974;2022-11-06T02:57:30;19.75;;;13.58;;
23634;SDS011;11994;51.038;16.974;2022-11-06T03:00:03;21.12;;;13.85;;
23634;SDS011;11994;51.038;16.974;2022-11-06T03:02:33;21.30;;;13.60;;
23634;SDS011;11994;51.038;16.974;2022-11-06T03:05:13;21.62;;;15.00;;
23634;SDS011;11994;51.038;16.974;2022-11-06T03:07:49;20.25;;;14.87;;
23634;SDS011;11994;51.038;16.974;2022-11-06T03:10:33;24.80;;;16.25;;
23634;SDS011;11994;51.038;16.974;2022-11-06T03:13:05;22.35;;;15.35;;
23634;SDS011;11994;51.038;16.974;2022-11-06T03:15:44;22.82;;;15.72;;
23634;SDS011;11994;51.038;16.974;2022-11-06T03:18:14;23.32;;;15.43;;
23634;SDS011;11994;51.038;16.974;2022-11-06T03:21:40;21.90;;;14.90;;
23634;SDS011;11994;51.038;16.974;2022-11-06T03:26:17;21.40;;;14.05;;
23634;SDS011;11994;51.038;16.974;2022-11-06T03:28:58;23.07;;;13.80;;
23634;SDS011;11994;51.038;16.974;2022-11-06T03:31:39;19.90;;;13.18;;
23634;SDS011;11994;51.038;16.974;2022-11-06T03:34:10;24.35;;;14.10;;
23634;SDS011;11994;51.038;16.974;2022-11-06T03:36:39;25.27;;;14.15;;
23634;SDS011;11994;51.038;16.974;2022-11-06T03:39:10;24.43;;;14.25;;
23634;SDS011;11994;51.038;16.974;2022-11-06T03:44:19;21.15;;;11.93;;
23634;SDS011;11994;51.038;16.974;2022-11-06T03:46:52;17.20;;;12.07;;
23634;SDS011;11994;51.038;16.974;2022-11-06T03:49:33;16.42;;;11.95;;
23634;SDS011;11994;51.038;16.974;2022-11-06T03:52:10;17.92;;;12.35;;
23634;SDS011;11994;51.038;16.974;2022-11-06T03:54:41;19.50;;;11.85;;
23634;SDS011;11994;51.038;16.974;2022-11-06T03:57:22;18.10;;;11.83;;
23634;SDS011;11994;51.038;16.974;2022-11-06T03:59:53;18.17;;;12.30;;
23634;SDS011;11994;51.038;16.974;2022-11-06T04:02:22;20.45;;;12.47;;
23634;SDS011;11994;51.038;16.974;2022-11-06T04:04:57;18.55;;;12.13;;
23634;SDS011;11994;51.038;16.974;2022-11-06T04:07:40;19.50;;;11.53;;
23634;SDS011;11994;51.038;16.974;2022-11-06T04:10:14;16.52;;;10.82;;
23634;SDS011;11994;51.038;16.974;2022-11-06T04:12:59;16.67;;;11.43;;
23634;SDS011;11994;51.038;16.974;2022-11-06T04:15:46;16.12;;;11.33;;
23634;SDS011;11994;51.038;16.974;2022-11-06T04:18:17;20.27;;;12.23;;
23634;SDS011;11994;51.038;16.974;2022-11-06T04:20:49;19.35;;;13.30;;
23634;SDS011;11994;51.038;16.974;2022-11-06T04:23:49;25.15;;;12.65;;
23634;SDS011;11994;51.038;16.974;2022-11-06T04:37:59;20.35;;;12.88;;
23634;SDS011;11994;51.038;16.974;2022-11-06T04:43:54;25.72;;;14.93;;
23634;SDS011;11994;51.038;16.974;2022-11-06T04:46:47;22.40;;;12.98;;
23634;SDS011;11994;51.038;16.974;2022-11-06T04:49:25;20.17;;;12.33;;
23634;SDS011;11994;51.038;16.974;2022-11-06T04:51:55;19.53;;;12.50;;
23634;SDS011;11994;51.038;16.974;2022-11-06T04:54:22;19.17;;;12.93;;
23634;SDS011;11994;51.038;16.974;2022-11-06T04:56:48;19.48;;;13.05;;
23634;SDS011;11994;51.038;16.974;2022-11-06T04:59:15;19.92;;;12.70;;
23634;SDS011;11994;51.038;16.974;2022-11-06T05:01:43;22.70;;;13.78;;
23634;SDS011;11994;51.038;16.974;2022-11-06T05:04:10;24.20;;;13.85;;
23634;SDS011;11994;51.038;16.974;2022-11-06T05:06:36;24.00;;;13.33;;
23634;SDS011;11994;51.038;16.974;2022-11-06T05:09:02;18.00;;;11.50;;
23634;SDS011;11994;51.038;16.974;2022-11-06T05:11:28;20.32;;;12.70;;
23634;SDS011;11994;51.038;16.974;2022-11-06T05:13:55;21.57;;;12.88;;
23634;SDS011;11994;51.038;16.974;2022-11-06T05:16:20;22.58;;;13.43;;
23634;SDS011;11994;51.038;16.974;2022-11-06T05:18:46;20.13;;;13.73;;
23634;SDS011;11994;51.038;16.974;2022-11-06T05:21:12;18.40;;;13.22;;
23634;SDS011;11994;51.038;16.974;2022-11-06T05:23:57;23.67;;;13.35;;
23634;SDS011;11994;51.038;16.974;2022-11-06T05:26:22;21.93;;;13.48;;
23634;SDS011;11994;51.038;16.974;2022-11-06T05:28:48;21.23;;;12.93;;
23634;SDS011;11994;51.038;16.974;2022-11-06T05:31:14;19.23;;;12.73;;
23634;SDS011;11994;51.038;16.974;2022-11-06T05:33:40;21.73;;;13.13;;
23634;SDS011;11994;51.038;16.974;2022-11-06T05:36:06;21.35;;;13.58;;
23634;SDS011;11994;51.038;16.974;2022-11-06T05:38:32;22.05;;;14.00;;
23634;SDS011;11994;51.038;16.974;2022-11-06T05:40:58;25.35;;;13.93;;
23634;SDS011;11994;51.038;16.974;2022-11-06T05:43:24;19.60;;;13.22;;
23634;SDS011;11994;51.038;16.974;2022-11-06T05:45:50;20.43;;;12.90;;
23634;SDS011;11994;51.038;16.974;2022-11-06T05:48:17;19.62;;;13.38;;
23634;SDS011;11994;51.038;16.974;2022-11-06T05:50:42;22.07;;;13.15;;
23634;SDS011;11994;51.038;16.974;2022-11-06T05:53:08;19.07;;;12.58;;
23634;SDS011;11994;51.038;16.974;2022-11-06T05:55:34;23.97;;;13.00;;
23634;SDS011;11994;51.038;16.974;2022-11-06T05:58:00;20.35;;;12.43;;
23634;SDS011;11994;51.038;16.974;2022-11-06T06:00:26;24.32;;;12.45;;
23634;SDS011;11994;51.038;16.974;2022-11-06T06:02:52;21.10;;;12.67;;
23634;SDS011;11994;51.038;16.974;2022-11-06T06:05:17;23.00;;;11.90;;
23634;SDS011;11994;51.038;16.974;2022-11-06T06:07:43;22.90;;;11.77;;
23634;SDS011;11994;51.038;16.974;2022-11-06T06:10:09;22.13;;;11.55;;
23634;SDS011;11994;51.038;16.974;2022-11-06T06:12:35;19.92;;;11.60;;
23634;SDS011;11994;51.038;16.974;2022-11-06T06:15:03;22.07;;;11.70;;
23634;SDS011;11994;51.038;16.974;2022-11-06T06:17:31;19.90;;;11.35;;
23634;SDS011;11994;51.038;16.974;2022-11-06T06:19:57;19.83;;;10.33;;
23634;SDS011;11994;51.038;16.974;2022-11-06T06:22:23;19.48;;;10.30;;
23634;SDS011;11994;51.038;16.974;2022-11-06T06:24:48;19.80;;;10.32;;
23634;SDS011;11994;51.038;16.974;2022-11-06T06:27:14;19.32;;;10.40;;
23634;SDS011;11994;51.038;16.974;2022-11-06T06:29:41;22.30;;;10.98;;
23634;SDS011;11994;51.038;16.974;2022-11-06T06:32:07;30.50;;;11.63;;
23634;SDS011;11994;51.038;16.974;2022-11-06T06:34:32;18.62;;;11.40;;
23634;SDS011;11994;51.038;16.974;2022-11-06T06:36:58;20.30;;;11.08;;
23634;SDS011;11994;51.038;16.974;2022-11-06T06:39:24;21.42;;;11.22;;
23634;SDS011;11994;51.038;16.974;2022-11-06T06:41:50;21.80;;;10.43;;
23634;SDS011;11994;51.038;16.974;2022-11-06T06:44:16;18.70;;;10.30;;
23634;SDS011;11994;51.038;16.974;2022-11-06T06:46:42;17.62;;;10.32;;
23634;SDS011;11994;51.038;16.974;2022-11-06T06:49:07;17.65;;;10.40;;
23634;SDS011;11994;51.038;16.974;2022-11-06T06:51:33;21.37;;;10.35;;
23634;SDS011;11994;51.038;16.974;2022-11-06T06:53:59;17.40;;;10.40;;
23634;SDS011;11994;51.038;16.974;2022-11-06T06:56:25;20.40;;;10.33;;
23634;SDS011;11994;51.038;16.974;2022-11-06T06:58:53;18.85;;;10.32;;
23634;SDS011;11994;51.038;16.974;2022-11-06T07:01:20;17.70;;;10.00;;
23634;SDS011;11994;51.038;16.974;2022-11-06T07:03:46;14.25;;;8.45;;
23634;SDS011;11994;51.038;16.974;2022-11-06T07:06:12;16.45;;;9.43;;
23634;SDS011;11994;51.038;16.974;2022-11-06T07:08:38;18.33;;;10.23;;
23634;SDS011;11994;51.038;16.974;2022-11-06T07:11:05;22.82;;;11.05;;
23634;SDS011;11994;51.038;16.974;2022-11-06T07:13:34;21.52;;;11.30;;
23634;SDS011;11994;51.038;16.974;2022-11-06T07:16:07;19.65;;;11.12;;
23634;SDS011;11994;51.038;16.974;2022-11-06T07:18:35;15.63;;;10.18;;
23634;SDS011;11994;51.038;16.974;2022-11-06T07:21:04;18.23;;;10.20;;
23634;SDS011;11994;51.038;16.974;2022-11-06T07:23:32;15.20;;;9.85;;
23634;SDS011;11994;51.038;16.974;2022-11-06T07:26:02;19.35;;;9.95;;
23634;SDS011;11994;51.038;16.974;2022-11-06T07:28:30;14.78;;;10.15;;
23634;SDS011;11994;51.038;16.974;2022-11-06T07:30:57;21.02;;;11.50;;
23634;SDS011;11994;51.038;16.974;2022-11-06T07:33:30;21.70;;;11.75;;
23634;SDS011;11994;51.038;16.974;2022-11-06T07:36:00;19.92;;;11.53;;
23634;SDS011;11994;51.038;16.974;2022-11-06T07:38:33;15.80;;;10.40;;
23634;SDS011;11994;51.038;16.974;2022-11-06T07:41:00;18.90;;;11.03;;
23634;SDS011;11994;51.038;16.974;2022-11-06T07:43:28;17.07;;;10.78;;
23634;SDS011;11994;51.038;16.974;2022-11-06T07:45:58;25.00;;;11.83;;
23634;SDS011;11994;51.038;16.974;2022-11-06T07:48:26;19.50;;;10.90;;
23634;SDS011;11994;51.038;16.974;2022-11-06T07:50:53;17.30;;;10.88;;
23634;SDS011;11994;51.038;16.974;2022-11-06T07:53:19;19.02;;;9.88;;
23634;SDS011;11994;51.038;16.974;2022-11-06T07:55:53;18.35;;;9.25;;
23634;SDS011;11994;51.038;16.974;2022-11-06T07:58:20;19.77;;;9.65;;
23634;SDS011;11994;51.038;16.974;2022-11-06T08:00:48;16.73;;;9.28;;
23634;SDS011;11994;51.038;16.974;2022-11-06T08:05:44;16.85;;;8.55;;
23634;SDS011;11994;51.038;16.974;2022-11-06T08:08:10;18.17;;;8.88;;
23634;SDS011;11994;51.038;16.974;2022-11-06T08:10:37;17.42;;;9.03;;
23634;SDS011;11994;51.038;16.974;2022-11-06T08:13:15;11.83;;;7.12;;
23634;SDS011;11994;51.038;16.974;2022-11-06T08:15:40;15.50;;;7.62;;
23634;SDS011;11994;51.038;16.974;2022-11-06T08:18:08;14.68;;;7.12;;
23634;SDS011;11994;51.038;16.974;2022-11-06T08:20:35;14.80;;;7.50;;
23634;SDS011;11994;51.038;16.974;2022-11-06T08:23:03;17.15;;;8.13;;
23634;SDS011;11994;51.038;16.974;2022-11-06T08:25:32;18.37;;;8.90;;
23634;SDS011;11994;51.038;16.974;2022-11-06T08:27:59;13.35;;;7.70;;
23634;SDS011;11994;51.038;16.974;2022-11-06T08:30:27;12.65;;;6.60;;
23634;SDS011;11994;51.038;16.974;2022-11-06T08:32:57;15.50;;;7.37;;
23634;SDS011;11994;51.038;16.974;2022-11-06T08:35:28;15.25;;;7.45;;
23634;SDS011;11994;51.038;16.974;2022-11-06T08:37:54;12.37;;;7.50;;
23634;SDS011;11994;51.038;16.974;2022-11-06T08:40:20;13.00;;;6.90;;
23634;SDS011;11994;51.038;16.974;2022-11-06T08:42:46;16.70;;;7.40;;
23634;SDS011;11994;51.038;16.974;2022-11-06T08:45:12;16.93;;;7.15;;
23634;SDS011;11994;51.038;16.974;2022-11-06T08:47:38;13.65;;;6.80;;
23634;SDS011;11994;51.038;16.974;2022-11-06T08:50:04;15.88;;;7.70;;
23634;SDS011;11994;51.038;16.974;2022-11-06T08:52:31;12.35;;;7.72;;
23634;SDS011;11994;51.038;16.974;2022-11-06T08:54:57;20.68;;;12.20;;
23634;SDS011;11994;51.038;16.974;2022-11-06T08:57:23;20.32;;;9.30;;
23634;SDS011;11994;51.038;16.974;2022-11-06T08:59:49;16.70;;;8.85;;
23634;SDS011;11994;51.038;16.974;2022-11-06T09:02:15;15.83;;;8.98;;
23634;SDS011;11994;51.038;16.974;2022-11-06T09:04:41;13.88;;;7.80;;
23634;SDS011;11994;51.038;16.974;2022-11-06T09:07:06;13.88;;;7.95;;
23634;SDS011;11994;51.038;16.974;2022-11-06T09:09:32;14.53;;;8.10;;
23634;SDS011;11994;51.038;16.974;2022-11-06T09:11:58;13.13;;;8.28;;
23634;SDS011;11994;51.038;16.974;2022-11-06T09:14:26;16.50;;;8.65;;
23634;SDS011;11994;51.038;16.974;2022-11-06T09:16:52;16.50;;;8.95;;
23634;SDS011;11994;51.038;16.974;2022-11-06T09:19:19;26.45;;;11.43;;
23634;SDS011;11994;51.038;16.974;2022-11-06T09:21:45;18.32;;;9.23;;
23634;SDS011;11994;51.038;16.974;2022-11-06T09:24:11;18.52;;;8.80;;
23634;SDS011;11994;51.038;16.974;2022-11-06T09:26:37;13.53;;;7.97;;
23634;SDS011;11994;51.038;16.974;2022-11-06T09:29:03;15.18;;;8.90;;
23634;SDS011;11994;51.038;16.974;2022-11-06T09:31:29;16.20;;;7.47;;
23634;SDS011;11994;51.038;16.974;2022-11-06T09:33:54;11.43;;;7.62;;
23634;SDS011;11994;51.038;16.974;2022-11-06T09:36:21;13.43;;;6.50;;
23634;SDS011;11994;51.038;16.974;2022-11-06T09:38:47;14.93;;;7.58;;
23634;SDS011;11994;51.038;16.974;2022-11-06T09:47:04;12.40;;;6.85;;
23634;SDS011;11994;51.038;16.974;2022-11-06T09:49:46;15.03;;;7.50;;
23634;SDS011;11994;51.038;16.974;2022-11-06T09:52:32;11.05;;;5.95;;
23634;SDS011;11994;51.038;16.974;2022-11-06T09:55:08;11.25;;;5.95;;
23634;SDS011;11994;51.038;16.974;2022-11-06T09:57:54;13.25;;;6.53;;
23634;SDS011;11994;51.038;16.974;2022-11-06T10:00:30;11.68;;;5.83;;
23634;SDS011;11994;51.038;16.974;2022-11-06T10:02:56;11.93;;;5.37;;
23634;SDS011;11994;51.038;16.974;2022-11-06T10:05:34;11.35;;;4.97;;
23634;SDS011;11994;51.038;16.974;2022-11-06T10:08:15;11.22;;;4.75;;
23634;SDS011;11994;51.038;16.974;2022-11-06T10:16:36;13.93;;;4.87;;
23634;SDS011;11994;51.038;16.974;2022-11-06T10:19:24;13.38;;;5.03;;
23634;SDS011;11994;51.038;16.974;2022-11-06T10:25:07;11.57;;;4.60;;
23634;SDS011;11994;51.038;16.974;2022-11-06T10:27:54;13.80;;;5.20;;
23634;SDS011;11994;51.038;16.974;2022-11-06T10:30:42;12.07;;;4.17;;
23634;SDS011;11994;51.038;16.974;2022-11-06T10:39:02;15.05;;;4.08;;
23634;SDS011;11994;51.038;16.974;2022-11-06T10:41:32;11.12;;;4.00;;
23634;SDS011;11994;51.038;16.974;2022-11-06T10:44:04;14.58;;;4.00;;
23634;SDS011;11994;51.038;16.974;2022-11-06T10:46:40;13.72;;;3.67;;
23634;SDS011;11994;51.038;16.974;2022-11-06T10:49:46;8.50;;;3.20;;
23634;SDS011;11994;51.038;16.974;2022-11-06T10:58:15;10.98;;;3.55;;
23634;SDS011;11994;51.038;16.974;2022-11-06T11:00:45;8.85;;;3.33;;
23634;SDS011;11994;51.038;16.974;2022-11-06T11:05:57;8.43;;;3.12;;
23634;SDS011;11994;51.038;16.974;2022-11-06T11:08:35;11.63;;;2.70;;
23634;SDS011;11994;51.038;16.974;2022-11-06T11:13:48;8.85;;;2.65;;
23634;SDS011;11994;51.038;16.974;2022-11-06T11:16:28;7.55;;;2.45;;
23634;SDS011;11994;51.038;16.974;2022-11-06T11:19:13;13.25;;;2.62;;
23634;SDS011;11994;51.038;16.974;2022-11-06T11:21:51;9.25;;;3.30;;
23634;SDS011;11994;51.038;16.974;2022-11-06T11:24:23;7.03;;;2.87;;
23634;SDS011;11994;51.038;16.974;2022-11-06T11:26:57;10.95;;;2.37;;
23634;SDS011;11994;51.038;16.974;2022-11-06T11:29:41;8.80;;;2.65;;
23634;SDS011;11994;51.038;16.974;2022-11-06T11:32:11;6.35;;;1.70;;
23634;SDS011;11994;51.038;16.974;2022-11-06T11:34:42;8.08;;;2.17;;
23634;SDS011;11994;51.038;16.974;2022-11-06T11:37:23;11.00;;;2.45;;
23634;SDS011;11994;51.038;16.974;2022-11-06T11:39:52;7.37;;;2.30;;
23634;SDS011;11994;51.038;16.974;2022-11-06T11:42:26;8.28;;;2.25;;
23634;SDS011;11994;51.038;16.974;2022-11-06T11:47:41;9.83;;;3.50;;
23634;SDS011;11994;51.038;16.974;2022-11-06T11:50:22;7.65;;;2.90;;
23634;SDS011;11994;51.038;16.974;2022-11-06T11:52:56;8.30;;;3.02;;
23634;SDS011;11994;51.038;16.974;2022-11-06T11:55:40;9.00;;;3.00;;
23634;SDS011;11994;51.038;16.974;2022-11-06T11:58:22;6.72;;;2.75;;
23634;SDS011;11994;51.038;16.974;2022-11-06T12:00:55;10.70;;;3.00;;
23634;SDS011;11994;51.038;16.974;2022-11-06T12:03:30;9.78;;;3.00;;
23634;SDS011;11994;51.038;16.974;2022-11-06T12:06:05;11.03;;;2.80;;
23634;SDS011;11994;51.038;16.974;2022-11-06T12:08:44;10.03;;;2.80;;
23634;SDS011;11994;51.038;16.974;2022-11-06T12:11:21;9.60;;;2.62;;
23634;SDS011;11994;51.038;16.974;2022-11-06T12:17:16;10.25;;;2.87;;
23634;SDS011;11994;51.038;16.974;2022-11-06T12:19:51;13.78;;;2.92;;
23634;SDS011;11994;51.038;16.974;2022-11-06T12:22:20;8.28;;;3.17;;
23634;SDS011;11994;51.038;16.974;2022-11-06T12:24:52;7.90;;;2.83;;
23634;SDS011;11994;51.038;16.974;2022-11-06T12:27:27;9.48;;;2.95;;
23634;SDS011;11994;51.038;16.974;2022-11-06T12:33:37;9.78;;;3.25;;
23634;SDS011;11994;51.038;16.974;2022-11-06T12:35:32;7.62;;;3.15;;
23634;SDS011;11994;51.038;16.974;2022-11-06T12:40:48;11.18;;;3.05;;
23634;SDS011;11994;51.038;16.974;2022-11-06T12:52:39;12.33;;;5.03;;
23634;SDS011;11994;51.038;16.974;2022-11-06T12:55:28;14.50;;;6.03;;
23634;SDS011;11994;51.038;16.974;2022-11-06T13:01:04;10.10;;;4.28;;
23634;SDS011;11994;51.038;16.974;2022-11-06T13:06:48;7.97;;;3.05;;
23634;SDS011;11994;51.038;16.974;2022-11-06T13:17:34;6.42;;;2.37;;
23634;SDS011;11994;51.038;16.974;2022-11-06T13:20:48;7.87;;;2.62;;
23634;SDS011;11994;51.038;16.974;2022-11-06T13:22:41;6.00;;;2.12;;
23634;SDS011;11994;51.038;16.974;2022-11-06T13:25:26;6.50;;;2.12;;
23634;SDS011;11994;51.038;16.974;2022-11-06T13:30:58;8.90;;;2.25;;
23634;SDS011;11994;51.038;16.974;2022-11-06T13:33:35;9.65;;;2.70;;
23634;SDS011;11994;51.038;16.974;2022-11-06T13:36:14;10.55;;;2.92;;
23634;SDS011;11994;51.038;16.974;2022-11-06T13:38:49;7.47;;;2.87;;
23634;SDS011;11994;51.038;16.974;2022-11-06T13:41:26;5.40;;;2.30;;
23634;SDS011;11994;51.038;16.974;2022-11-06T13:49:28;6.83;;;1.95;;
23634;SDS011;11994;51.038;16.974;2022-11-06T14:04:05;10.68;;;4.37;;
23634;SDS011;11994;51.038;16.974;2022-11-06T14:06:52;10.75;;;3.87;;
23634;SDS011;11994;51.038;16.974;2022-11-06T14:09:23;7.15;;;3.42;;
23634;SDS011;11994;51.038;16.974;2022-11-06T14:11:53;9.33;;;4.13;;
23634;SDS011;11994;51.038;16.974;2022-11-06T14:14:23;7.03;;;3.25;;
23634;SDS011;11994;51.038;16.974;2022-11-06T14:22:26;8.45;;;3.47;;
23634;SDS011;11994;51.038;16.974;2022-11-06T14:33:01;8.30;;;3.70;;
23634;SDS011;11994;51.038;16.974;2022-11-06T14:38:18;9.03;;;3.47;;
23634;SDS011;11994;51.038;16.974;2022-11-06T14:43:32;12.55;;;5.67;;
23634;SDS011;11994;51.038;16.974;2022-11-06T14:46:06;12.98;;;5.50;;
23634;SDS011;11994;51.038;16.974;2022-11-06T14:48:42;16.57;;;6.60;;
23634;SDS011;11994;51.038;16.974;2022-11-06T14:51:11;12.98;;;5.47;;
23634;SDS011;11994;51.038;16.974;2022-11-06T14:56:19;11.57;;;5.25;;
23634;SDS011;11994;51.038;16.974;2022-11-06T14:59:05;10.28;;;4.12;;
23634;SDS011;11994;51.038;16.974;2022-11-06T15:01:29;9.73;;;4.70;;
23634;SDS011;11994;51.038;16.974;2022-11-06T15:04:14;10.43;;;4.30;;
23634;SDS011;11994;51.038;16.974;2022-11-06T15:06:44;15.00;;;4.72;;
23634;SDS011;11994;51.038;16.974;2022-11-06T15:11:59;13.62;;;5.35;;
23634;SDS011;11994;51.038;16.974;2022-11-06T15:19:45;11.65;;;4.45;;
23634;SDS011;11994;51.038;16.974;2022-11-06T15:22:19;14.68;;;5.53;;
23634;SDS011;11994;51.038;16.974;2022-11-06T15:25:16;12.58;;;6.62;;
23634;SDS011;11994;51.038;16.974;2022-11-06T15:27:53;17.42;;;7.15;;
23634;SDS011;11994;51.038;16.974;2022-11-06T15:30:27;17.55;;;13.65;;
23634;SDS011;11994;51.038;16.974;2022-11-06T15:32:58;22.25;;;16.32;;
23634;SDS011;11994;51.038;16.974;2022-11-06T15:35:27;24.95;;;18.37;;
23634;SDS011;11994;51.038;16.974;2022-11-06T15:38:03;31.62;;;24.35;;
23634;SDS011;11994;51.038;16.974;2022-11-06T15:40:44;12.55;;;6.70;;
23634;SDS011;11994;51.038;16.974;2022-11-06T15:43:27;15.98;;;8.55;;
23634;SDS011;11994;51.038;16.974;2022-11-06T15:49:13;19.98;;;9.33;;
23634;SDS011;11994;51.038;16.974;2022-11-06T15:51:48;16.45;;;8.53;;
23634;SDS011;11994;51.038;16.974;2022-11-06T15:54:37;24.70;;;17.35;;
23634;SDS011;11994;51.038;16.974;2022-11-06T15:59:47;23.77;;;13.55;;
23634;SDS011;11994;51.038;16.974;2022-11-06T16:02:19;23.52;;;17.73;;
23634;SDS011;11994;51.038;16.974;2022-11-06T16:04:44;38.75;;;30.25;;
23634;SDS011;11994;51.038;16.974;2022-11-06T16:07:11;22.22;;;17.15;;
23634;SDS011;11994;51.038;16.974;2022-11-06T16:09:39;22.77;;;14.95;;
23634;SDS011;11994;51.038;16.974;2022-11-06T16:12:08;23.92;;;14.07;;
23634;SDS011;11994;51.038;16.974;2022-11-06T16:14:40;23.90;;;14.15;;
23634;SDS011;11994;51.038;16.974;2022-11-06T16:17:31;19.95;;;12.58;;
23634;SDS011;11994;51.038;16.974;2022-11-06T16:19:51;19.92;;;12.35;;
23634;SDS011;11994;51.038;16.974;2022-11-06T16:22:26;19.42;;;12.78;;
23634;SDS011;11994;51.038;16.974;2022-11-06T16:24:56;28.95;;;15.72;;
23634;SDS011;11994;51.038;16.974;2022-11-06T16:27:33;24.82;;;15.25;;
23634;SDS011;11994;51.038;16.974;2022-11-06T16:30:03;26.45;;;16.45;;
23634;SDS011;11994;51.038;16.974;2022-11-06T16:32:37;25.30;;;15.88;;
23634;SDS011;11994;51.038;16.974;2022-11-06T16:35:28;27.17;;;15.35;;
23634;SDS011;11994;51.038;16.974;2022-11-06T16:37:56;23.25;;;15.38;;
23634;SDS011;11994;51.038;16.974;2022-11-06T16:43:17;25.15;;;16.02;;
23634;SDS011;11994;51.038;16.974;2022-11-06T16:48:32;28.25;;;18.17;;
23634;SDS011;11994;51.038;16.974;2022-11-06T16:51:10;26.23;;;16.15;;
23634;SDS011;11994;51.038;16.974;2022-11-06T16:53:46;23.15;;;15.63;;
23634;SDS011;11994;51.038;16.974;2022-11-06T16:56:24;25.30;;;16.70;;
23634;SDS011;11994;51.038;16.974;2022-11-06T17:01:37;29.70;;;21.00;;
23634;SDS011;11994;51.038;16.974;2022-11-06T17:04:08;29.72;;;18.60;;
23634;SDS011;11994;51.038;16.974;2022-11-06T17:06:38;27.65;;;18.25;;
23634;SDS011;11994;51.038;16.974;2022-11-06T17:11:52;24.70;;;15.13;;
23634;SDS011;11994;51.038;16.974;2022-11-06T17:14:21;27.48;;;15.65;;
23634;SDS011;11994;51.038;16.974;2022-11-06T17:16:52;23.27;;;15.08;;
23634;SDS011;11994;51.038;16.974;2022-11-06T17:19:22;24.35;;;15.72;;
23634;SDS011;11994;51.038;16.974;2022-11-06T17:21:49;27.15;;;16.30;;
23634;SDS011;11994;51.038;16.974;2022-11-06T17:24:16;26.27;;;16.52;;
23634;SDS011;11994;51.038;16.974;2022-11-06T17:26:45;26.90;;;14.80;;
23634;SDS011;11994;51.038;16.974;2022-11-06T17:29:13;23.40;;;13.93;;
23634;SDS011;11994;51.038;16.974;2022-11-06T17:31:39;21.60;;;14.25;;
23634;SDS011;11994;51.038;16.974;2022-11-06T17:34:05;23.25;;;14.40;;
23634;SDS011;11994;51.038;16.974;2022-11-06T17:36:31;23.55;;;15.40;;
23634;SDS011;11994;51.038;16.974;2022-11-06T17:38:58;27.42;;;17.85;;